createdAt,value
2023-01-18T00:01:13.234Z,98841.00
2023-01-18T00:03:45.729Z,98847.38
2023-01-18T00:06:22.639Z,98852.22
2023-01-18T00:08:52.527Z,98842.44
2023-01-18T00:11:24.456Z,98846.97
2023-01-18T00:13:54.311Z,98843.81
2023-01-18T00:16:26.092Z,98843.31
2023-01-18T00:18:57.776Z,98841.22
2023-01-18T00:21:32.093Z,98840.25
2023-01-18T00:24:04.552Z,98842.13
2023-01-18T00:26:35.502Z,98843.19
2023-01-18T00:29:10.464Z,98847.75
2023-01-18T00:31:41.943Z,98849.09
2023-01-18T00:34:11.898Z,98846.72
2023-01-18T00:36:44.265Z,98844.38
2023-01-18T00:39:15.505Z,98851.06
2023-01-18T00:42:05.791Z,98850.00
2023-01-18T00:44:33.223Z,98850.78
2023-01-18T00:47:02.945Z,98867.28
2023-01-18T00:49:34.865Z,98864.31
2023-01-18T00:52:07.762Z,98867.47
2023-01-18T00:54:39.187Z,98872.81
2023-01-18T00:57:13.609Z,98852.84
2023-01-18T00:59:46.946Z,98857.69
2023-01-18T01:02:17.917Z,98864.91
2023-01-18T01:05:00.147Z,98869.22
2023-01-18T01:07:32.620Z,98877.81
2023-01-18T01:10:11.016Z,98870.38
2023-01-18T01:12:56.607Z,98872.56
2023-01-18T01:15:39.169Z,98866.22
2023-01-18T01:18:21.839Z,98872.13
2023-01-18T01:21:04.105Z,98878.06
2023-01-18T01:23:49.051Z,98883.94
2023-01-18T01:26:18.902Z,98881.88
2023-01-18T01:28:54.936Z,98876.03
2023-01-18T01:31:25.078Z,98882.72
2023-01-18T01:33:55.286Z,98894.75
2023-01-18T01:36:28.454Z,98898.50
2023-01-18T01:39:03.334Z,98907.59
2023-01-18T01:41:35.136Z,98906.56
2023-01-18T01:44:07.491Z,98901.25
2023-01-18T01:46:45.864Z,98912.41
2023-01-18T01:49:19.128Z,98905.44
2023-01-18T01:51:51.834Z,98910.16
2023-01-18T01:54:28.464Z,98907.50
2023-01-18T01:57:06.253Z,98913.91
2023-01-18T01:59:40.402Z,98913.91
2023-01-18T02:02:10.679Z,98908.88
2023-01-18T02:04:46.628Z,98921.81
2023-01-18T02:07:17.479Z,98915.75
2023-01-18T02:09:50.725Z,98915.84
2023-01-18T02:12:20.955Z,98918.53
2023-01-18T02:14:50.997Z,98919.59
2023-01-18T02:17:32.853Z,98925.97
2023-01-18T02:20:34.805Z,98929.22
2023-01-18T02:23:28.951Z,98922.31
2023-01-18T02:26:32.202Z,98924.97
2023-01-18T02:29:17.656Z,98928.72
2023-01-18T02:32:05.956Z,98923.41
2023-01-18T02:34:42.212Z,98923.41
2023-01-18T02:37:21.574Z,98922.09
2023-01-18T02:40:05.246Z,98920.50
2023-01-18T02:42:49.110Z,98922.38
2023-01-18T02:45:38.538Z,98919.22
2023-01-18T02:48:10.723Z,98922.16
2023-01-18T02:50:40.618Z,98919.22
2023-01-18T02:53:10.661Z,98930.06
2023-01-18T02:55:49.359Z,98927.41
2023-01-18T02:58:25.402Z,98927.16
2023-01-18T03:01:05.196Z,98932.47
2023-01-18T03:03:35.155Z,98930.88
2023-01-18T03:06:08.985Z,98931.94
2023-01-18T03:08:43.386Z,98928.28
2023-01-18T03:11:17.844Z,98930.41
2023-01-18T03:14:01.953Z,98939.00
2023-01-18T03:16:43.514Z,98933.94
2023-01-18T03:19:33.113Z,98943.81
2023-01-18T03:22:05.738Z,98942.78
2023-01-18T03:24:41.426Z,98940.41
2023-01-18T03:27:24.755Z,98948.69
2023-01-18T03:30:07.029Z,98950.81
2023-01-18T03:32:53.799Z,98947.66
2023-01-18T03:35:27.608Z,98960.47
2023-01-18T03:37:59.500Z,98953.56
2023-01-18T03:40:32.155Z,98955.69
2023-01-18T03:43:08.678Z,98951.16
2023-01-18T03:45:43.151Z,98960.47
2023-01-18T03:48:16.423Z,98959.88
2023-01-18T03:50:52.464Z,98964.66
2023-01-18T03:53:32.682Z,98965.16
2023-01-18T03:56:07.995Z,98964.09
2023-01-18T03:58:40.568Z,98963.28
2023-01-18T04:01:10.534Z,98973.16
2023-01-18T04:03:42.956Z,98966.25
2023-01-18T04:06:12.949Z,98968.41
2023-01-18T04:08:42.899Z,98975.88
2023-01-18T04:11:12.617Z,98987.09
2023-01-18T04:13:42.423Z,98982.84
2023-01-18T04:16:12.454Z,98990.31
2023-01-18T04:18:44.800Z,98988.22
2023-01-18T04:21:14.629Z,98999.94
2023-01-18T04:23:44.424Z,98995.72
2023-01-18T04:26:16.824Z,98993.31
2023-01-18T04:28:46.673Z,99000.00
2023-01-18T04:31:16.839Z,98998.41
2023-01-18T04:33:51.633Z,99002.16
2023-01-18T04:36:22.099Z,99000.56
2023-01-18T04:38:55.963Z,98997.38
2023-01-18T04:41:26.017Z,99006.44
2023-01-18T04:43:55.680Z,98999.53
2023-01-18T04:46:25.591Z,99007.78
2023-01-18T04:48:57.956Z,98998.22
2023-01-18T04:51:27.725Z,99004.34
2023-01-18T04:53:57.758Z,99004.84
2023-01-18T04:56:27.477Z,99010.69
2023-01-18T04:58:58.199Z,99004.03
2023-01-18T05:01:29.832Z,99012.81
2023-01-18T05:04:02.393Z,99013.88
2023-01-18T05:06:32.130Z,99014.97
2023-01-18T05:09:01.950Z,99022.41
2023-01-18T05:11:31.723Z,99022.97
2023-01-18T05:14:01.756Z,99036.28
2023-01-18T05:16:31.489Z,99040.28
2023-01-18T05:19:04.300Z,99048.06
2023-01-18T05:21:34.121Z,99051.78
2023-01-18T05:24:03.898Z,99053.94
2023-01-18T05:26:33.843Z,99055.00
2023-01-18T05:29:03.499Z,99051.81
2023-01-18T05:31:33.247Z,99053.19
2023-01-18T05:34:06.062Z,99067.28
2023-01-18T05:36:35.761Z,99066.78
2023-01-18T05:39:05.725Z,99065.16
2023-01-18T05:41:35.495Z,99068.91
2023-01-18T05:44:05.302Z,99077.16
2023-01-18T05:46:35.165Z,99074.78
2023-01-18T05:49:07.559Z,99071.06
2023-01-18T05:51:38.255Z,99077.97
2023-01-18T05:54:08.055Z,99081.91
2023-01-18T05:56:38.010Z,99081.91
2023-01-18T05:59:07.792Z,99081.13
2023-01-18T06:01:37.729Z,99090.19
2023-01-18T06:04:10.329Z,99095.56
2023-01-18T06:06:40.101Z,99101.72
2023-01-18T06:09:09.991Z,99103.59
2023-01-18T06:11:39.891Z,99107.34
2023-01-18T06:14:09.793Z,99111.59
2023-01-18T06:16:39.570Z,99116.91
2023-01-18T06:19:12.294Z,99120.66
2023-01-18T06:21:42.076Z,99115.34
2023-01-18T06:24:12.105Z,99124.91
2023-01-18T06:26:42.169Z,99125.97
2023-01-18T06:29:12.148Z,99131.28
2023-01-18T06:31:42.200Z,99131.28
2023-01-18T06:34:14.649Z,99137.41
2023-01-18T06:36:45.292Z,99133.44
2023-01-18T06:39:15.152Z,99135.81
2023-01-18T06:41:44.919Z,99144.59
2023-01-18T06:44:14.968Z,99149.91
2023-01-18T06:46:46.713Z,99147.25
2023-01-18T06:49:19.089Z,99143.53
2023-01-18T06:51:48.964Z,99153.63
2023-01-18T06:54:18.783Z,99157.59
2023-01-18T06:56:48.556Z,99150.13
2023-01-18T06:59:18.454Z,99156.53
2023-01-18T07:01:48.506Z,99158.94
2023-01-18T07:04:21.044Z,99168.75
2023-01-18T07:06:50.968Z,99179.69
2023-01-18T07:09:20.883Z,99181.03
2023-01-18T07:11:50.672Z,99177.88
2023-01-18T07:14:20.644Z,99179.72
2023-01-18T07:16:50.438Z,99183.97
2023-01-18T07:19:22.795Z,99193.03
2023-01-18T07:21:54.112Z,99189.84
2023-01-18T07:24:24.289Z,99203.69
2023-01-18T07:26:54.047Z,99211.69
2023-01-18T07:29:24.305Z,99217.00
2023-01-18T07:31:54.283Z,99213.81
2023-01-18T07:34:26.904Z,99208.50
2023-01-18T07:36:56.718Z,99219.66
2023-01-18T07:39:26.534Z,99221.81
2023-01-18T07:41:56.297Z,99236.19
2023-01-18T07:44:26.569Z,99233.78
2023-01-18T07:46:56.283Z,99240.97
2023-01-18T07:49:28.700Z,99244.41
2023-01-18T07:51:58.458Z,99245.22
2023-01-18T07:54:28.149Z,99245.22
2023-01-18T07:56:57.855Z,99248.41
2023-01-18T07:59:28.048Z,99244.69
2023-01-18T08:01:58.225Z,99244.13
2023-01-18T08:04:30.735Z,99252.66
2023-01-18T08:07:00.727Z,99252.38
2023-01-18T08:09:30.573Z,99255.28
2023-01-18T08:12:00.331Z,99259.56
2023-01-18T08:14:30.596Z,99259.28
2023-01-18T08:17:00.471Z,99252.88
2023-01-18T08:19:32.892Z,99263.25
2023-01-18T08:22:02.840Z,99265.91
2023-01-18T08:24:32.643Z,99269.38
2023-01-18T08:27:02.338Z,99270.16
2023-01-18T08:29:32.161Z,99270.72
2023-01-18T08:32:02.603Z,99267.78
2023-01-18T08:34:34.962Z,99284.25
2023-01-18T08:37:04.967Z,99283.47
2023-01-18T08:39:34.820Z,99295.69
2023-01-18T08:42:04.668Z,99303.16
2023-01-18T08:44:34.846Z,99302.06
2023-01-18T08:47:04.556Z,99303.13
2023-01-18T08:49:37.155Z,99301.78
2023-01-18T08:52:07.232Z,99307.63
2023-01-18T08:54:36.988Z,99310.53
2023-01-18T08:57:08.211Z,99320.66
2023-01-18T08:59:37.926Z,99316.38
2023-01-18T09:02:07.772Z,99319.00
2023-01-18T09:04:40.217Z,99323.25
2023-01-18T09:07:10.252Z,99329.09
2023-01-18T09:09:39.991Z,99333.31
2023-01-18T09:12:10.048Z,99342.88
2023-01-18T09:14:40.258Z,99341.53
2023-01-18T09:17:10.024Z,99337.25
2023-01-18T09:19:42.506Z,99348.16
2023-01-18T09:22:13.676Z,99337.75
2023-01-18T09:24:43.609Z,99340.66
2023-01-18T09:27:14.245Z,99348.91
2023-01-18T09:29:44.062Z,99349.94
2023-01-18T09:32:14.120Z,99348.63
2023-01-18T09:34:49.377Z,99350.44
2023-01-18T09:37:19.235Z,99353.88
2023-01-18T09:39:52.120Z,99356.50
2023-01-18T09:42:25.198Z,99355.16
2023-01-18T09:44:59.806Z,99367.66
2023-01-18T09:47:32.222Z,99363.34
2023-01-18T09:50:11.163Z,99375.06
2023-01-18T09:52:49.298Z,99378.50
2023-01-18T09:55:27.741Z,99377.66
2023-01-18T09:58:14.408Z,99382.97
2023-01-18T10:00:47.892Z,99378.94
2023-01-18T10:03:22.523Z,99385.59
2023-01-18T10:06:09.044Z,99385.03
2023-01-18T10:08:44.083Z,99404.75
2023-01-18T10:11:21.853Z,99395.41
2023-01-18T10:13:59.911Z,99399.91
2023-01-18T10:16:29.832Z,99399.84
2023-01-18T10:19:01.706Z,99398.75
2023-01-18T10:21:50.301Z,99399.78
2023-01-18T10:24:30.988Z,99392.53
2023-01-18T10:27:16.288Z,99404.03
2023-01-18T10:29:56.811Z,99408.50
2023-01-18T10:32:28.925Z,99403.13
2023-01-18T10:35:00.553Z,99398.84
2023-01-18T10:37:42.835Z,99406.78
2023-01-18T10:40:15.032Z,99413.94
2023-01-18T10:42:48.552Z,99410.44
2023-01-18T10:45:21.345Z,99404.25
2023-01-18T10:47:52.079Z,99405.56
2023-01-18T10:50:24.910Z,99411.13
2023-01-18T10:52:57.771Z,99422.28
2023-01-18T10:55:29.057Z,99406.50
2023-01-18T10:57:59.309Z,99418.50
2023-01-18T11:00:36.461Z,99414.69
2023-01-18T11:03:10.099Z,99414.63
2023-01-18T11:05:42.894Z,99426.34
2023-01-18T11:08:25.574Z,99421.50
2023-01-18T11:11:03.754Z,99419.88
2023-01-18T11:13:37.781Z,99414.47
2023-01-18T11:16:13.914Z,99420.28
2023-01-18T11:18:58.712Z,99421.88
2023-01-18T11:21:33.412Z,99415.94
2023-01-18T11:24:15.679Z,99421.75
2023-01-18T11:26:59.199Z,99429.72
2023-01-18T11:29:31.864Z,99430.16
2023-01-18T11:32:07.123Z,99422.09
2023-01-18T11:34:41.202Z,99420.91
2023-01-18T11:37:34.507Z,99420.91
2023-01-18T11:40:28.177Z,99422.72
2023-01-18T11:43:03.745Z,99420.78
2023-01-18T11:45:36.564Z,99420.22
2023-01-18T11:48:15.217Z,99416.97
2023-01-18T11:50:49.819Z,99419.28
2023-01-18T11:53:32.486Z,99411.19
2023-01-18T11:56:09.591Z,99414.38
2023-01-18T11:58:40.072Z,99424.19
2023-01-18T12:01:27.089Z,99419.38
2023-01-18T12:04:02.959Z,99418.78
2023-01-18T12:06:44.011Z,99421.16
2023-01-18T12:09:27.945Z,99422.19
2023-01-18T12:12:19.212Z,99417.03
2023-01-18T12:15:02.092Z,99412.72
2023-01-18T12:18:01.264Z,99424.22
2023-01-18T12:20:47.042Z,99420.66
2023-01-18T12:23:55.056Z,99419.47
2023-01-18T12:26:51.410Z,99418.41
2023-01-18T12:29:59.932Z,99422.69
2023-01-18T12:32:49.681Z,99426.88
2023-01-18T12:35:39.847Z,99428.88
2023-01-18T12:38:23.223Z,99432.56
2023-01-18T12:41:21.568Z,99433.09
2023-01-18T12:44:08.361Z,99438.63
2023-01-18T12:46:46.908Z,99437.25
2023-01-18T12:49:21.585Z,99427.06
2023-01-18T12:52:09.199Z,99434.78
2023-01-18T12:54:50.585Z,99434.97
2023-01-18T12:57:23.180Z,99427.97
2023-01-18T12:59:57.391Z,99431.94
2023-01-18T13:02:35.064Z,99428.97
2023-01-18T13:05:09.432Z,99432.66
2023-01-18T13:07:44.825Z,99436.03
2023-01-18T13:10:22.266Z,99431.97
2023-01-18T13:12:53.868Z,99439.94
2023-01-18T13:15:34.390Z,99435.59
2023-01-18T13:18:14.042Z,99438.94
2023-01-18T13:20:56.207Z,99438.66
2023-01-18T13:23:39.889Z,99441.34
2023-01-18T13:26:22.092Z,99444.53
2023-01-18T13:29:08.509Z,99447.69
2023-01-18T13:31:39.008Z,99440.75
2023-01-18T13:34:28.983Z,99453.66
2023-01-18T13:37:13.829Z,99457.25
2023-01-18T13:39:51.423Z,99459.31
2023-01-18T13:42:38.500Z,99459.03
2023-01-18T13:45:23.283Z,99455.25
2023-01-18T13:48:03.518Z,99456.47
2023-01-18T13:50:52.376Z,99452.09
2023-01-18T13:53:27.255Z,99467.00
2023-01-18T13:56:36.777Z,99466.81
2023-01-18T13:59:19.505Z,99469.38
2023-01-18T14:01:51.721Z,99479.28
2023-01-18T14:04:33.182Z,99484.09
2023-01-18T14:07:08.100Z,99479.28
2023-01-18T14:09:42.988Z,99487.25
2023-01-18T14:12:14.850Z,99486.47
2023-01-18T14:15:03.381Z,99495.31
2023-01-18T14:17:46.783Z,99489.94
2023-01-18T14:20:55.075Z,99491.81
2023-01-18T14:23:38.933Z,99492.03
2023-01-18T14:26:10.861Z,99497.91
2023-01-18T14:28:48.608Z,99495.22
2023-01-18T14:31:23.314Z,99502.97
2023-01-18T14:33:53.254Z,99505.34
2023-01-18T14:36:25.059Z,99512.28
2023-01-18T14:39:17.772Z,99514.47
2023-01-18T14:41:50.716Z,99515.50
2023-01-18T14:44:24.059Z,99525.59
2023-01-18T14:46:55.598Z,99526.41
2023-01-18T14:49:29.086Z,99531.84
2023-01-18T14:51:59.789Z,99531.28
2023-01-18T14:54:32.258Z,99533.16
2023-01-18T14:57:09.627Z,99536.94
2023-01-18T14:59:39.834Z,99536.72
2023-01-18T15:02:19.331Z,99541.28
2023-01-18T15:04:49.736Z,99539.72
2023-01-18T15:07:22.790Z,99535.94
2023-01-18T15:09:55.433Z,99536.53
2023-01-18T15:12:31.918Z,99539.22
2023-01-18T15:15:09.378Z,99535.53
2023-01-18T15:17:40.449Z,99543.25
2023-01-18T15:20:17.289Z,99532.53
2023-01-18T15:22:50.899Z,99541.97
2023-01-18T15:25:29.312Z,99539.91
2023-01-18T15:28:14.765Z,99541.47
2023-01-18T15:30:53.496Z,99547.41
2023-01-18T15:33:26.408Z,99548.50
2023-01-18T15:36:01.145Z,99552.28
2023-01-18T15:38:31.572Z,99552.88
2023-01-18T15:41:09.072Z,99564.09
2023-01-18T15:43:44.063Z,99564.91
2023-01-18T15:46:17.168Z,99553.38
2023-01-18T15:48:53.720Z,99553.97
2023-01-18T15:51:44.227Z,99558.34
2023-01-18T15:54:20.857Z,99560.53
2023-01-18T15:56:53.928Z,99568.03
2023-01-18T15:59:25.697Z,99575.59
2023-01-18T16:02:19.000Z,99578.94
2023-01-18T16:04:49.591Z,99581.31
2023-01-18T16:07:39.270Z,99582.47
2023-01-18T16:10:31.259Z,99587.03
2023-01-18T16:13:31.100Z,99585.47
2023-01-18T16:16:14.454Z,99580.09
2023-01-18T16:18:46.329Z,99584.38
2023-01-18T16:21:26.323Z,99586.84
2023-01-18T16:23:57.123Z,99590.31
2023-01-18T16:26:31.827Z,99590.59
2023-01-18T16:29:10.063Z,99602.69
2023-01-18T16:31:45.951Z,99597.13
2023-01-18T16:34:27.437Z,99601.47
2023-01-18T16:36:57.365Z,99605.81
2023-01-18T16:39:27.272Z,99606.63
2023-01-18T16:42:00.376Z,99616.31
2023-01-18T16:44:32.077Z,99608.59
2023-01-18T16:47:05.029Z,99609.16
2023-01-18T16:49:35.331Z,99608.34
2023-01-18T16:52:07.639Z,99614.28
2023-01-18T16:54:37.368Z,99620.22
2023-01-18T16:57:07.164Z,99627.75
2023-01-18T16:59:37.282Z,99620.00
2023-01-18T17:02:09.968Z,99628.91
2023-01-18T17:04:39.836Z,99618.97
2023-01-18T17:07:09.671Z,99635.84
2023-01-18T17:09:47.833Z,99635.84
2023-01-18T17:12:19.077Z,99635.34
2023-01-18T17:14:48.959Z,99634.84
2023-01-18T17:17:21.769Z,99638.59
2023-01-18T17:19:51.705Z,99637.28
2023-01-18T17:22:21.541Z,99636.78
2023-01-18T17:24:53.544Z,99626.38
2023-01-18T17:27:23.376Z,99627.47
2023-01-18T17:29:53.141Z,99633.38
2023-01-18T17:32:25.530Z,99637.13
2023-01-18T17:34:55.356Z,99641.69
2023-01-18T17:37:25.116Z,99651.59
2023-01-18T17:40:11.133Z,99652.13
2023-01-18T17:42:43.863Z,99648.63
2023-01-18T17:45:14.612Z,99660.94
2023-01-18T17:47:48.132Z,99651.03
2023-01-18T17:50:24.924Z,99655.31
2023-01-18T17:52:55.454Z,99662.25
2023-01-18T17:55:34.269Z,99663.63
2023-01-18T17:58:05.500Z,99663.91
2023-01-18T18:00:35.336Z,99659.13
2023-01-18T18:03:08.083Z,99670.94
2023-01-18T18:05:38.598Z,99659.69
2023-01-18T18:08:09.962Z,99667.72
2023-01-18T18:10:40.001Z,99674.75
2023-01-18T18:13:09.712Z,99681.41
2023-01-18T18:15:39.639Z,99677.94
2023-01-18T18:18:22.583Z,99681.69
2023-01-18T18:20:53.536Z,99682.50
2023-01-18T18:23:23.306Z,99680.59
2023-01-18T18:25:53.131Z,99686.25
2023-01-18T18:28:24.673Z,99688.63
2023-01-18T18:30:56.806Z,99695.38
2023-01-18T18:33:31.434Z,99692.41
2023-01-18T18:36:02.246Z,99699.34
2023-01-18T18:38:31.991Z,99700.44
2023-01-18T18:41:06.627Z,99713.81
2023-01-18T18:43:37.216Z,99712.72
2023-01-18T18:46:07.612Z,99715.69
2023-01-18T18:48:40.291Z,99718.66
2023-01-18T18:51:10.082Z,99719.72
2023-01-18T18:53:41.176Z,99723.50
2023-01-18T18:56:12.136Z,99727.75
2023-01-18T18:58:42.307Z,99726.97
2023-01-18T19:01:22.140Z,99739.28
2023-01-18T19:03:56.318Z,99739.00
2023-01-18T19:06:27.268Z,99739.00
2023-01-18T19:08:57.655Z,99742.97
2023-01-18T19:11:27.408Z,99747.53
2023-01-18T19:13:58.711Z,99751.31
2023-01-18T19:16:28.623Z,99758.25
2023-01-18T19:19:01.301Z,99763.59
2023-01-18T19:21:32.533Z,99760.97
2023-01-18T19:24:02.464Z,99760.97
2023-01-18T19:26:32.217Z,99763.66
2023-01-18T19:29:02.136Z,99768.50
2023-01-18T19:31:32.847Z,99776.81
2023-01-18T19:34:05.357Z,99767.44
2023-01-18T19:36:35.271Z,99769.63
2023-01-18T19:39:09.225Z,99769.09
2023-01-18T19:41:44.445Z,99768.31
2023-01-18T19:44:14.757Z,99767.81
2023-01-18T19:46:44.629Z,99773.94
2023-01-18T19:49:20.126Z,99780.34
2023-01-18T19:51:50.418Z,99791.06
2023-01-18T19:54:20.480Z,99778.25
2023-01-18T19:56:51.464Z,99790.56
2023-01-18T19:59:21.244Z,99788.16
2023-01-18T20:01:52.588Z,99785.78
2023-01-18T20:04:25.123Z,99791.63
2023-01-18T20:06:56.326Z,99794.81
2023-01-18T20:09:35.091Z,99791.34
2023-01-18T20:12:13.429Z,99798.31
2023-01-18T20:14:44.916Z,99795.91
2023-01-18T20:17:16.161Z,99795.91
2023-01-18T20:19:51.026Z,99796.41
2023-01-18T20:22:20.827Z,99785.16
2023-01-18T20:24:50.705Z,99801.72
2023-01-18T20:27:22.250Z,99792.06
2023-01-18T20:29:52.068Z,99809.72
2023-01-18T20:32:22.635Z,99804.88
2023-01-18T20:34:55.485Z,99818.28
2023-01-18T20:37:25.588Z,99805.97
2023-01-18T20:39:56.195Z,99807.06
2023-01-18T20:42:26.359Z,99812.41
2023-01-18T20:45:00.596Z,99807.34
2023-01-18T20:47:30.518Z,99812.94
2023-01-18T20:50:03.442Z,99815.13
2023-01-18T20:52:36.397Z,99801.19
2023-01-18T20:55:06.766Z,99804.13
2023-01-18T20:57:36.632Z,99813.25
2023-01-18T21:00:07.390Z,99798.78
2023-01-18T21:02:37.349Z,99819.94
2023-01-18T21:05:10.529Z,99818.84
2023-01-18T21:07:41.775Z,99815.88
2023-01-18T21:10:13.769Z,99825.22
2023-01-18T21:12:45.454Z,99817.72
2023-01-18T21:15:15.892Z,99822.50
2023-01-18T21:17:47.095Z,99827.56
2023-01-18T21:20:19.957Z,99828.09
2023-01-18T21:22:49.967Z,99822.75
2023-01-18T21:25:20.150Z,99823.53
2023-01-18T21:27:50.008Z,99825.94
2023-01-18T21:30:20.202Z,99832.09
2023-01-18T21:32:50.498Z,99838.25
2023-01-18T21:35:23.331Z,99833.69
2023-01-18T21:37:53.067Z,99840.09
2023-01-18T21:40:23.052Z,99831.75
2023-01-18T21:43:05.199Z,99825.03
2023-01-18T21:45:47.466Z,99828.22
2023-01-18T21:48:18.310Z,99830.63
2023-01-18T21:51:05.569Z,99833.56
2023-01-18T21:53:48.168Z,99842.94
2023-01-18T21:56:18.061Z,99843.22
2023-01-18T21:58:58.632Z,99842.69
2023-01-18T22:01:34.052Z,99852.59
2023-01-18T22:04:21.275Z,99845.38
2023-01-18T22:06:54.181Z,99844.06
2023-01-18T22:09:24.288Z,99848.03
2023-01-18T22:11:56.072Z,99848.59
2023-01-18T22:14:31.792Z,99839.75
2023-01-18T22:17:02.343Z,99850.19
2023-01-18T22:19:32.232Z,99860.88
2023-01-18T22:22:04.876Z,99861.41
2023-01-18T22:24:34.658Z,99861.41
2023-01-18T22:27:11.202Z,99861.41
2023-01-18T22:29:41.035Z,99863.78
2023-01-18T22:32:10.891Z,99860.34
2023-01-18T22:34:41.811Z,99866.47
2023-01-18T22:37:14.309Z,99863.78
2023-01-18T22:39:44.175Z,99880.66
2023-01-18T22:42:15.721Z,99871.53
2023-01-18T22:44:48.757Z,99877.69
2023-01-18T22:47:19.072Z,99871.53
2023-01-18T22:49:50.483Z,99869.94
2023-01-18T22:52:23.061Z,99883.34
2023-01-18T22:54:53.250Z,99874.81
2023-01-18T22:57:23.065Z,99872.41
2023-01-18T22:59:53.354Z,99881.44
2023-01-18T23:02:23.259Z,99884.66
2023-01-18T23:04:57.224Z,99890.81
2023-01-18T23:07:32.943Z,99887.59
2023-01-18T23:10:02.789Z,99896.19
2023-01-18T23:12:32.904Z,99905.28
2023-01-18T23:15:23.981Z,99901.00
2023-01-18T23:17:57.909Z,99901.28
2023-01-18T23:20:27.944Z,99904.25
2023-01-18T23:23:02.944Z,99902.41
2023-01-18T23:25:34.958Z,99899.47
2023-01-18T23:28:06.188Z,99898.94
2023-01-18T23:30:35.869Z,99903.78
2023-01-18T23:33:05.632Z,99905.38
2023-01-18T23:35:37.646Z,99904.03
2023-01-18T23:38:12.544Z,99898.41
2023-01-18T23:40:55.764Z,99891.97
2023-01-18T23:43:38.987Z,99899.00
2023-01-18T23:46:21.299Z,99900.59
2023-01-18T23:49:03.717Z,99895.22
2023-01-18T23:51:47.418Z,99892.00
2023-01-18T23:54:19.947Z,99900.03
2023-01-18T23:56:50.484Z,99898.44
2023-01-18T23:59:20.524Z,99903.28
